Ontario International Airport Ontario US
ICAO: KONT
IATA: ONT
Category: Large
Scheduled Services: Yes

Elevation: 944 ft
TransAlt. 18000 ft.

Airport Communications:
SOCAL APP/DEP:119.65
ATIS:124.25
CLNC DEL:118.1
GND:121.9
TWR:120.6

KONT Zoom In..

If you have problems with the map follow the link
https://www.worldairports.se/pages/airport.php?
ICAO=KONT

Runways:

(A) RW 08L length 12197 ft width 150 ft
ILS 109.70 / hdg 76

(B) RW 08R length 10200 ft width 150 ft
---- / hdg 76

(C) RW 26L length 10200 ft width 150 ft
ILS 111.35 / hdg 256

(D) RW 26R length 12197 ft width 150 ft
ILS 109.70 / hdg 256

Location; KONT
Day. 24 / Time. 10.53 Zulu
* Altimeter: 30.15
* Temperature: 14° c. 57.2°f.
* Wind from: 220° Speed 04 kn.
Dewpoint: 11° c.
Visibility: 10 Statute Miles.
Clouds: Few 1200 ft.
Clouds: Scattered 1900 ft.
Clouds: Broken 2600 ft.

KONT 241053Z 22004KT 10SM FEW012 SCT019 BKN026 14/11 A3015 RMK AO2 SLP202 T01390111


Wind From 220°
Speed 04 kn.

 
 
jpsmedia.com for Web Design worldairports.se 2019   terms of use